Time;durP1;ratioP1;P1;durP2;ratioP2;P2;SDS_P1;SDS_P2;PMS_P1;PMS_P2;Temp;Humidity;BMP_temperature;BMP_pressure;BME280_temperature;BME280_humidity;BME280_pressure;Samples;Min_cycle;Max_cycle;Signal;HPM_P1;HPM_P2
2022/07/17 00:01:16;;;;;;;5.00;1.60;;;;;;;;;;5102975;28;20039;-66
2022/07/17 00:03:42;;;;;;;2.33;1.20;;;;;;;;;;5103789;28;20051;-66
2022/07/17 00:06:08;;;;;;;2.40;1.30;;;;;;;;;;5104367;28;20070;-66
2022/07/17 00:08:34;;;;;;;2.88;1.10;;;;;;;;;;5111838;28;20059;-66
2022/07/17 00:11:01;;;;;;;4.20;1.42;;;;;;;;;;5113306;28;20465;-66
2022/07/17 00:13:27;;;;;;;3.95;1.50;;;;;;;;;;5112769;28;20036;-66
2022/07/17 00:15:53;;;;;;;3.83;1.35;;;;;;;;;;5113958;28;20043;-66
2022/07/17 00:18:19;;;;;;;5.25;1.33;;;;;;;;;;5111721;28;20408;-66
2022/07/17 00:20:45;;;;;;;4.78;1.30;;;;;;;;;;5110126;28;20046;-66
2022/07/17 00:23:11;;;;;;;2.90;1.30;;;;;;;;;;5112277;28;20042;-66
2022/07/17 00:25:37;;;;;;;2.28;1.40;;;;;;;;;;5109951;28;20031;-66
2022/07/17 00:28:03;;;;;;;4.28;1.70;;;;;;;;;;5111276;28;20161;-66
2022/07/17 00:30:29;;;;;;;6.38;1.50;;;;;;;;;;5106899;28;20035;-66
2022/07/17 00:32:55;;;;;;;3.15;1.35;;;;;;;;;;5111098;28;20032;-66
2022/07/17 00:35:21;;;;;;;3.92;1.40;;;;;;;;;;5111016;28;20047;-66
2022/07/17 00:37:48;;;;;;;5.43;1.88;;;;;;;;;;5106913;28;20397;-67
2022/07/17 00:40:17;;;;;;;3.50;1.55;;;;;;;;;;5113038;28;20112;-67
2022/07/17 00:42:43;;;;;;;3.55;1.48;;;;;;;;;;5112345;28;20177;-67
2022/07/17 00:45:10;;;;;;;4.95;1.52;;;;;;;;;;5103372;28;20477;-67
2022/07/17 00:47:50;;;;;;;3.40;1.27;;;;;;;;;;5106940;28;20038;-67
2022/07/17 00:50:17;;;;;;;4.37;1.33;;;;;;;;;;5109316;28;20046;-67
2022/07/17 00:52:43;;;;;;;4.60;1.60;;;;;;;;;;5103981;28;20055;-67
2022/07/17 00:55:09;;;;;;;3.00;1.38;;;;;;;;;;5109723;28;20039;-67
2022/07/17 00:57:37;;;;;;;3.15;1.25;;;;;;;;;;5105333;28;20104;-67
2022/07/17 01:00:09;;;;;;;2.50;1.20;;;;;;;;;;5106038;28;20397;-67
2022/07/17 01:02:35;;;;;;;2.58;1.33;;;;;;;;;;5111529;28;20039;-67
2022/07/17 01:05:01;;;;;;;3.97;1.73;;;;;;;;;;5112794;28;20028;-67
2022/07/17 01:07:27;;;;;;;3.97;1.58;;;;;;;;;;5113487;28;20035;-67
2022/07/17 01:09:53;;;;;;;2.50;1.58;;;;;;;;;;5107274;28;20096;-67
2022/07/17 01:12:19;;;;;;;4.35;1.60;;;;;;;;;;5107577;28;20050;-67
2022/07/17 01:14:45;;;;;;;1.45;1.17;;;;;;;;;;5105541;28;20044;-67
2022/07/17 01:17:12;;;;;;;3.17;1.20;;;;;;;;;;5100740;28;20043;-67
2022/07/17 01:19:38;;;;;;;3.17;1.80;;;;;;;;;;5102795;28;20031;-67
2022/07/17 01:22:04;;;;;;;2.88;1.48;;;;;;;;;;5106937;28;20047;-67
2022/07/17 01:24:30;;;;;;;2.53;1.50;;;;;;;;;;5105623;28;20068;-67
2022/07/17 01:26:56;;;;;;;2.08;1.30;;;;;;;;;;5107179;28;20031;-67
2022/07/17 01:29:23;;;;;;;3.63;1.67;;;;;;;;;;5110413;28;20043;-67
2022/07/17 01:31:49;;;;;;;2.72;1.50;;;;;;;;;;5106652;28;20096;-67
2022/07/17 01:34:15;;;;;;;2.40;1.38;;;;;;;;;;5111485;28;20036;-67
2022/07/17 01:36:42;;;;;;;3.17;1.52;;;;;;;;;;5104541;28;20074;-67
2022/07/17 01:39:08;;;;;;;3.25;1.45;;;;;;;;;;5111958;28;20035;-67
2022/07/17 01:41:34;;;;;;;3.05;1.58;;;;;;;;;;5108597;28;20126;-67
2022/07/17 01:44:00;;;;;;;3.75;1.58;;;;;;;;;;5111988;28;20070;-67
2022/07/17 01:46:26;;;;;;;3.78;1.50;;;;;;;;;;5109445;28;20038;-67
2022/07/17 01:48:52;;;;;;;1.75;1.48;;;;;;;;;;5103619;28;20028;-67
2022/07/17 01:51:18;;;;;;;4.60;1.85;;;;;;;;;;5107857;28;20096;-67
2022/07/17 01:53:44;;;;;;;4.40;1.88;;;;;;;;;;5111473;28;20036;-67
2022/07/17 01:56:10;;;;;;;4.13;1.70;;;;;;;;;;5111153;28;20031;-67
2022/07/17 01:58:36;;;;;;;1.67;1.30;;;;;;;;;;5108378;28;20031;-67
2022/07/17 02:01:02;;;;;;;2.97;1.40;;;;;;;;;;5106167;28;20497;-67
2022/07/17 02:03:28;;;;;;;2.10;1.50;;;;;;;;;;5105890;28;20036;-67
2022/07/17 02:05:54;;;;;;;2.78;1.60;;;;;;;;;;5109550;28;20035;-65
2022/07/17 02:08:21;;;;;;;1.70;1.60;;;;;;;;;;5104483;28;20039;-66
2022/07/17 02:10:47;;;;;;;3.53;1.55;;;;;;;;;;5104490;28;20046;-67
2022/07/17 02:13:13;;;;;;;1.75;1.10;;;;;;;;;;5110383;28;20039;-67
2022/07/17 02:15:39;;;;;;;1.88;1.60;;;;;;;;;;5108773;28;20172;-67
2022/07/17 02:18:05;;;;;;;2.05;1.65;;;;;;;;;;5109841;28;20047;-67
2022/07/17 02:20:32;;;;;;;3.10;1.90;;;;;;;;;;5104119;28;20039;-67
2022/07/17 02:22:58;;;;;;;8.68;1.80;;;;;;;;;;5106018;28;20040;-67
2022/07/17 02:25:24;;;;;;;2.88;1.63;;;;;;;;;;5101671;28;20036;-67
2022/07/17 02:27:51;;;;;;;2.50;1.83;;;;;;;;;;5106982;28;20056;-67
2022/07/17 02:30:18;;;;;;;5.28;1.73;;;;;;;;;;5108802;28;20046;-67
2022/07/17 02:32:44;;;;;;;3.00;1.75;;;;;;;;;;5106632;28;20050;-67
2022/07/17 02:35:11;;;;;;;3.53;1.50;;;;;;;;;;5106819;28;20035;-67
2022/07/17 02:37:37;;;;;;;2.60;1.90;;;;;;;;;;5106470;28;20043;-67
2022/07/17 02:40:04;;;;;;;3.15;1.80;;;;;;;;;;5103894;28;20067;-67
2022/07/17 02:42:30;;;;;;;3.65;1.75;;;;;;;;;;5101169;28;20066;-67
2022/07/17 02:44:58;;;;;;;2.95;1.80;;;;;;;;;;5110753;28;20081;-67
2022/07/17 02:47:25;;;;;;;1.83;1.60;;;;;;;;;;5106343;28;20513;-66
2022/07/17 02:49:52;;;;;;;2.90;1.80;;;;;;;;;;5097631;28;20119;-67
2022/07/17 02:52:18;;;;;;;4.72;1.70;;;;;;;;;;5101191;28;20031;-67
2022/07/17 02:54:44;;;;;;;2.25;1.50;;;;;;;;;;5111367;28;20088;-67
2022/07/17 02:57:11;;;;;;;2.15;1.83;;;;;;;;;;5107139;28;20503;-67
2022/07/17 02:59:37;;;;;;;1.88;1.52;;;;;;;;;;5107005;28;20063;-67
2022/07/17 03:02:03;;;;;;;2.00;1.70;;;;;;;;;;5107578;28;20404;-67
2022/07/17 03:04:29;;;;;;;3.50;1.67;;;;;;;;;;5108043;28;20036;-67
2022/07/17 03:06:55;;;;;;;3.65;1.90;;;;;;;;;;5110439;28;20070;-67
2022/07/17 03:09:21;;;;;;;3.50;1.60;;;;;;;;;;5104332;28;20144;-67
2022/07/17 03:11:47;;;;;;;2.35;1.48;;;;;;;;;;5101884;28;20625;-67
2022/07/17 03:14:13;;;;;;;1.80;1.50;;;;;;;;;;5110002;28;20118;-67
2022/07/17 03:16:39;;;;;;;4.15;1.73;;;;;;;;;;5109625;28;20039;-67
2022/07/17 03:19:05;;;;;;;2.58;1.90;;;;;;;;;;5102062;28;20537;-67
2022/07/17 03:21:31;;;;;;;3.25;1.98;;;;;;;;;;5109708;28;20032;-67
2022/07/17 03:23:57;;;;;;;4.60;1.90;;;;;;;;;;5102790;28;20028;-64
2022/07/17 03:26:23;;;;;;;3.85;2.50;;;;;;;;;;5100658;28;20043;-65
2022/07/17 03:28:49;;;;;;;4.18;2.00;;;;;;;;;;5103127;28;20040;-64
2022/07/17 03:31:15;;;;;;;3.30;2.40;;;;;;;;;;5107311;28;20032;-64
2022/07/17 03:33:41;;;;;;;4.22;2.63;;;;;;;;;;5095427;28;20124;-64
2022/07/17 03:36:07;;;;;;;3.13;2.15;;;;;;;;;;5107779;28;20031;-65
2022/07/17 03:38:34;;;;;;;3.13;2.30;;;;;;;;;;5106240;28;20044;-64
2022/07/17 03:41:00;;;;;;;3.10;2.10;;;;;;;;;;5099791;28;20383;-65
2022/07/17 03:43:26;;;;;;;2.75;2.00;;;;;;;;;;5114741;28;20042;-64
2022/07/17 03:45:52;;;;;;;2.75;1.90;;;;;;;;;;5112216;28;20100;-64
2022/07/17 03:48:18;;;;;;;4.18;1.90;;;;;;;;;;5112536;28;20108;-65
2022/07/17 03:50:44;;;;;;;1.90;1.70;;;;;;;;;;5108024;28;20112;-64
2022/07/17 03:53:10;;;;;;;4.32;2.05;;;;;;;;;;5112939;28;20453;-64
2022/07/17 03:55:36;;;;;;;2.63;1.75;;;;;;;;;;5112418;28;20140;-64
2022/07/17 03:58:02;;;;;;;2.45;1.90;;;;;;;;;;5110967;28;20035;-65
2022/07/17 04:00:28;;;;;;;2.13;1.92;;;;;;;;;;5110647;28;20366;-66
2022/07/17 04:02:54;;;;;;;3.45;2.20;;;;;;;;;;5108143;28;20027;-66
2022/07/17 04:05:20;;;;;;;3.17;1.80;;;;;;;;;;5107545;28;20028;-66
2022/07/17 04:07:46;;;;;;;3.53;1.88;;;;;;;;;;5111665;28;20038;-66
2022/07/17 04:10:14;;;;;;;3.65;2.25;;;;;;;;;;5106568;28;20118;-66
2022/07/17 04:12:41;;;;;;;2.67;1.60;;;;;;;;;;5104329;28;20104;-66
2022/07/17 04:15:08;;;;;;;1.95;1.67;;;;;;;;;;5108054;28;20165;-65
2022/07/17 04:17:34;;;;;;;2.83;1.70;;;;;;;;;;5110577;28;20039;-66
2022/07/17 04:20:00;;;;;;;2.33;1.52;;;;;;;;;;5106461;28;20028;-66
2022/07/17 04:22:26;;;;;;;2.63;1.70;;;;;;;;;;5101993;28;20101;-66
2022/07/17 04:24:52;;;;;;;2.55;1.63;;;;;;;;;;5104129;28;20059;-66
2022/07/17 04:27:19;;;;;;;2.78;1.65;;;;;;;;;;5104340;28;20054;-66
2022/07/17 04:29:45;;;;;;;3.83;1.70;;;;;;;;;;5106668;28;20044;-66
2022/07/17 04:32:11;;;;;;;1.60;1.50;;;;;;;;;;5101189;28;20099;-66
2022/07/17 04:34:37;;;;;;;2.00;1.50;;;;;;;;;;5105776;28;20520;-66
2022/07/17 04:37:04;;;;;;;1.73;1.50;;;;;;;;;;5104503;28;20046;-66
2022/07/17 04:39:30;;;;;;;2.13;1.60;;;;;;;;;;5103412;28;20052;-66
2022/07/17 04:41:57;;;;;;;3.28;1.55;;;;;;;;;;5108309;28;20036;-63
2022/07/17 04:44:23;;;;;;;3.88;1.85;;;;;;;;;;5108733;28;20040;-64
2022/07/17 04:46:49;;;;;;;1.70;1.60;;;;;;;;;;5107647;28;20437;-63
2022/07/17 04:49:15;;;;;;;2.72;1.73;;;;;;;;;;5106905;28;20036;-63
2022/07/17 04:51:41;;;;;;;1.92;1.73;;;;;;;;;;5104044;28;20680;-64
2022/07/17 04:54:07;;;;;;;1.40;1.30;;;;;;;;;;5108623;28;20071;-64
2022/07/17 04:56:33;;;;;;;2.63;1.45;;;;;;;;;;5106136;28;20032;-64
2022/07/17 04:58:59;;;;;;;1.90;1.70;;;;;;;;;;5100084;28;20678;-64
2022/07/17 05:01:25;;;;;;;2.20;1.80;;;;;;;;;;5107953;28;20455;-64
2022/07/17 05:03:51;;;;;;;3.78;2.17;;;;;;;;;;5109868;28;20036;-63
2022/07/17 05:06:17;;;;;;;2.10;1.50;;;;;;;;;;5105282;28;20493;-63
2022/07/17 05:08:43;;;;;;;5.47;2.10;;;;;;;;;;5109523;28;20092;-63
2022/07/17 05:11:09;;;;;;;4.90;2.33;;;;;;;;;;5110433;28;20040;-64
2022/07/17 05:13:35;;;;;;;2.42;1.90;;;;;;;;;;5069426;28;1111307;-64
2022/07/17 05:16:01;;;;;;;3.70;2.03;;;;;;;;;;5102267;28;20461;-64
2022/07/17 05:18:27;;;;;;;6.47;3.33;;;;;;;;;;5106387;28;20062;-64
2022/07/17 05:20:53;;;;;;;7.30;3.40;;;;;;;;;;5110598;28;20035;-63
2022/07/17 05:23:19;;;;;;;5.32;3.15;;;;;;;;;;5101116;28;20044;-64
2022/07/17 05:25:45;;;;;;;8.57;3.03;;;;;;;;;;5107121;28;20499;-64
2022/07/17 05:28:11;;;;;;;4.15;2.80;;;;;;;;;;5109710;28;20105;-64
2022/07/17 05:30:37;;;;;;;6.97;2.85;;;;;;;;;;5104216;28;20086;-64
2022/07/17 05:33:03;;;;;;;4.45;2.83;;;;;;;;;;5107480;28;20035;-64
2022/07/17 05:35:31;;;;;;;5.63;3.40;;;;;;;;;;5103234;28;20133;-64
2022/07/17 05:37:57;;;;;;;5.72;2.95;;;;;;;;;;5107065;28;20103;-63
2022/07/17 05:40:25;;;;;;;6.93;3.10;;;;;;;;;;5107008;27;20289;-64
2022/07/17 05:42:51;;;;;;;6.93;3.42;;;;;;;;;;5108673;28;20080;-63
2022/07/17 05:45:17;;;;;;;7.45;3.13;;;;;;;;;;5105886;28;20096;-64
2022/07/17 05:47:43;;;;;;;5.85;2.83;;;;;;;;;;5107059;28;21061;-63
2022/07/17 05:50:09;;;;;;;6.25;2.58;;;;;;;;;;5109531;28;20031;-63
2022/07/17 05:52:36;;;;;;;7.20;3.17;;;;;;;;;;5109614;28;20145;-63
2022/07/17 05:55:02;;;;;;;4.75;2.67;;;;;;;;;;5108304;28;20036;-64
2022/07/17 05:57:28;;;;;;;5.82;2.78;;;;;;;;;;5104625;28;20043;-63
2022/07/17 05:59:54;;;;;;;4.65;2.70;;;;;;;;;;5108947;28;20040;-63
2022/07/17 06:02:20;;;;;;;5.93;2.90;;;;;;;;;;5107617;28;20100;-63
2022/07/17 06:04:46;;;;;;;5.93;3.03;;;;;;;;;;5105239;28;20036;-63
2022/07/17 06:07:12;;;;;;;5.03;2.40;;;;;;;;;;5101568;28;20028;-64
2022/07/17 06:09:38;;;;;;;9.13;3.22;;;;;;;;;;5108723;28;20068;-64
2022/07/17 06:12:04;;;;;;;7.95;3.00;;;;;;;;;;5106431;28;20039;-63
2022/07/17 06:14:30;;;;;;;3.70;2.50;;;;;;;;;;5105750;28;20105;-63
2022/07/17 06:16:56;;;;;;;7.28;3.10;;;;;;;;;;5110754;28;20481;-64
2022/07/17 06:19:22;;;;;;;5.63;3.15;;;;;;;;;;5106823;28;20032;-64
2022/07/17 06:21:48;;;;;;;5.53;2.72;;;;;;;;;;5105052;28;20040;-63
2022/07/17 06:24:14;;;;;;;7.75;2.92;;;;;;;;;;5109327;28;20028;-64
2022/07/17 06:26:40;;;;;;;3.33;2.40;;;;;;;;;;5101374;28;20105;-63
2022/07/17 06:29:06;;;;;;;5.88;2.80;;;;;;;;;;5103860;28;20062;-63
2022/07/17 06:31:32;;;;;;;7.45;3.17;;;;;;;;;;5107383;28;20036;-64
2022/07/17 06:33:58;;;;;;;6.63;3.00;;;;;;;;;;5103213;28;20392;-64
2022/07/17 06:36:24;;;;;;;4.78;2.97;;;;;;;;;;5100906;28;21429;-64
2022/07/17 06:38:50;;;;;;;7.35;2.85;;;;;;;;;;5104893;28;20108;-64
2022/07/17 06:41:16;;;;;;;8.07;2.85;;;;;;;;;;5107014;28;20048;-64
2022/07/17 06:43:42;;;;;;;8.00;3.08;;;;;;;;;;5105414;28;20035;-64
2022/07/17 06:46:08;;;;;;;5.00;2.33;;;;;;;;;;5105707;28;20038;-64
2022/07/17 06:48:34;;;;;;;7.72;2.50;;;;;;;;;;5106705;28;20036;-64
2022/07/17 06:51:00;;;;;;;6.00;2.40;;;;;;;;;;5106155;28;20040;-64
2022/07/17 06:53:27;;;;;;;4.20;1.98;;;;;;;;;;5107300;28;20157;-63
2022/07/17 06:55:53;;;;;;;4.28;1.88;;;;;;;;;;5106479;28;20067;-64
2022/07/17 06:58:19;;;;;;;7.93;2.00;;;;;;;;;;5105497;28;20039;-64
2022/07/17 07:00:45;;;;;;;7.32;2.47;;;;;;;;;;5110008;28;20374;-64
2022/07/17 07:03:11;;;;;;;5.72;1.83;;;;;;;;;;5108480;28;20549;-64
2022/07/17 07:05:37;;;;;;;5.50;1.70;;;;;;;;;;5102139;28;20040;-64
2022/07/17 07:08:03;;;;;;;5.88;1.83;;;;;;;;;;5102250;28;20124;-63
2022/07/17 07:10:29;;;;;;;5.07;1.40;;;;;;;;;;5106414;28;20517;-64
2022/07/17 07:12:56;;;;;;;6.32;1.45;;;;;;;;;;5107151;28;20496;-64
2022/07/17 07:15:23;;;;;;;4.15;1.40;;;;;;;;;;5105947;28;20040;-64
2022/07/17 07:17:49;;;;;;;6.95;1.60;;;;;;;;;;5109640;28;20504;-64
2022/07/17 07:20:15;;;;;;;8.05;1.58;;;;;;;;;;5111616;28;20036;-63
2022/07/17 07:22:41;;;;;;;6.55;1.50;;;;;;;;;;5107763;28;20044;-63
2022/07/17 07:25:08;;;;;;;4.88;1.38;;;;;;;;;;5109028;28;20063;-63
2022/07/17 07:27:34;;;;;;;2.38;1.10;;;;;;;;;;5104157;28;20136;-63
2022/07/17 07:30:00;;;;;;;2.90;1.30;;;;;;;;;;5109513;28;20085;-64
2022/07/17 07:32:26;;;;;;;2.40;0.93;;;;;;;;;;5102722;28;20092;-63
2022/07/17 07:34:52;;;;;;;3.58;1.02;;;;;;;;;;5104354;28;20478;-63
2022/07/17 07:37:18;;;;;;;4.00;0.90;;;;;;;;;;5109673;28;20505;-64
2022/07/17 07:39:44;;;;;;;5.82;1.25;;;;;;;;;;5109092;28;20616;-63
2022/07/17 07:42:11;;;;;;;4.05;1.00;;;;;;;;;;5110111;28;20112;-65
2022/07/17 07:44:37;;;;;;;4.03;0.90;;;;;;;;;;5104522;28;20039;-63
2022/07/17 07:47:03;;;;;;;4.07;1.00;;;;;;;;;;5109260;28;20035;-63
2022/07/17 07:49:29;;;;;;;5.30;0.93;;;;;;;;;;5111089;28;20396;-63
2022/07/17 07:51:55;;;;;;;3.55;0.98;;;;;;;;;;5103786;28;20115;-64
2022/07/17 07:54:21;;;;;;;6.78;1.33;;;;;;;;;;5109026;28;20079;-64
2022/07/17 07:56:47;;;;;;;5.15;0.80;;;;;;;;;;5110888;28;20074;-64
2022/07/17 07:59:13;;;;;;;4.55;0.93;;;;;;;;;;5110055;27;20126;-64
2022/07/17 08:01:39;;;;;;;2.70;0.95;;;;;;;;;;5108610;28;20055;-64
2022/07/17 08:04:05;;;;;;;2.90;0.93;;;;;;;;;;5108118;28;20027;-64
2022/07/17 08:06:32;;;;;;;3.83;1.10;;;;;;;;;;5108941;28;20032;-64
2022/07/17 08:08:58;;;;;;;4.03;1.10;;;;;;;;;;5110931;27;20096;-63
2022/07/17 08:11:24;;;;;;;3.40;1.10;;;;;;;;;;5111244;28;20131;-63
2022/07/17 08:13:50;;;;;;;4.43;1.13;;;;;;;;;;5108332;28;20040;-64
2022/07/17 08:16:16;;;;;;;3.63;1.05;;;;;;;;;;5112683;28;20049;-64
2022/07/17 08:18:42;;;;;;;6.78;1.35;;;;;;;;;;5109648;27;20047;-64
2022/07/17 08:21:08;;;;;;;3.70;0.80;;;;;;;;;;5107975;28;20044;-64
2022/07/17 08:23:35;;;;;;;3.58;1.00;;;;;;;;;;5108509;28;20073;-64
2022/07/17 08:28:33;;;;;;;4.00;0.90;;;;;;;;;;5123716;27;20078;-65
2022/07/17 08:30:59;;;;;;;8.25;1.52;;;;;;;;;;5127379;27;20463;-65
2022/07/17 08:33:26;;;;;;;5.78;1.17;;;;;;;;;;5128350;27;20035;-64
2022/07/17 08:35:52;;;;;;;2.50;0.82;;;;;;;;;;5131214;27;20047;-64
2022/07/17 08:38:18;;;;;;;3.58;1.00;;;;;;;;;;5120234;27;20050;-64
2022/07/17 08:40:47;;;;;;;2.75;0.88;;;;;;;;;;5123387;27;20039;-64
2022/07/17 08:43:14;;;;;;;3.70;1.10;;;;;;;;;;5127803;27;20810;-64
2022/07/17 08:45:40;;;;;;;4.50;1.02;;;;;;;;;;5118551;27;20027;-64
2022/07/17 08:48:08;;;;;;;4.60;1.00;;;;;;;;;;5121346;27;20032;-64
2022/07/17 08:50:35;;;;;;;6.88;1.27;;;;;;;;;;5127938;27;20107;-64
2022/07/17 08:53:02;;;;;;;6.18;0.95;;;;;;;;;;5116580;27;20035;-64
2022/07/17 08:55:28;;;;;;;8.65;1.17;;;;;;;;;;5127121;27;20040;-64
2022/07/17 08:57:55;;;;;;;3.65;1.10;;;;;;;;;;5118494;27;20043;-63
2022/07/17 09:00:22;;;;;;;3.67;1.10;;;;;;;;;;5127515;27;20396;-64
2022/07/17 09:03:02;;;;;;;2.88;1.20;;;;;;;;;;5118022;27;20382;-64
2022/07/17 09:05:30;;;;;;;4.38;1.38;;;;;;;;;;5124173;27;20130;-64
2022/07/17 09:07:56;;;;;;;5.70;1.23;;;;;;;;;;5127388;27;20036;-64
2022/07/17 09:10:31;;;;;;;8.07;1.55;;;;;;;;;;5126642;27;20054;-64
2022/07/17 09:12:58;;;;;;;2.05;1.10;;;;;;;;;;5127740;27;20396;-64
2022/07/17 09:15:24;;;;;;;3.70;1.00;;;;;;;;;;5121959;27;20036;-64
2022/07/17 09:17:51;;;;;;;4.00;1.20;;;;;;;;;;5130575;27;20039;-64
2022/07/17 09:20:19;;;;;;;1.77;0.80;;;;;;;;;;5126963;27;20035;-64
2022/07/17 09:22:45;;;;;;;3.67;1.00;;;;;;;;;;5117807;27;20402;-65
2022/07/17 09:25:11;;;;;;;6.60;1.02;;;;;;;;;;5116530;27;20118;-65
2022/07/17 09:27:37;;;;;;;3.03;0.88;;;;;;;;;;5124565;27;20038;-65
2022/07/17 09:30:05;;;;;;;5.60;1.10;;;;;;;;;;5121658;27;20031;-65
2022/07/17 09:32:35;;;;;;;2.78;1.00;;;;;;;;;;5116060;27;20391;-65
2022/07/17 09:35:02;;;;;;;3.20;1.10;;;;;;;;;;5125679;27;20043;-66
2022/07/17 09:37:29;;;;;;;2.15;0.68;;;;;;;;;;5113976;27;20047;-65
2022/07/17 09:39:56;;;;;;;2.83;0.90;;;;;;;;;;5115974;27;20045;-65
2022/07/17 09:42:26;;;;;;;5.25;1.10;;;;;;;;;;5132886;27;20054;-65
2022/07/17 09:45:10;;;;;;;3.40;1.02;;;;;;;;;;5133955;27;20070;-65
2022/07/17 09:47:38;;;;;;;3.92;0.80;;;;;;;;;;5124945;27;20121;-65
2022/07/17 09:50:05;;;;;;;2.30;0.90;;;;;;;;;;5111888;28;20031;-65
2022/07/17 09:52:32;;;;;;;3.65;0.90;;;;;;;;;;5113363;28;20044;-65
2022/07/17 09:54:59;;;;;;;4.65;1.13;;;;;;;;;;5128493;27;20583;-65
2022/07/17 09:57:33;;;;;;;4.05;1.10;;;;;;;;;;5087233;28;20399;-62
2022/07/17 10:00:12;;;;;;;3.25;0.98;;;;;;;;;;5087199;28;20056;-63
2022/07/17 10:02:42;;;;;;;2.83;0.70;;;;;;;;;;5089579;28;20470;-62
2022/07/17 10:05:12;;;;;;;5.70;1.00;;;;;;;;;;5089276;28;20040;-65
2022/07/17 10:07:40;;;;;;;3.35;1.10;;;;;;;;;;5083670;28;20032;-65
2022/07/17 10:10:08;;;;;;;3.90;0.90;;;;;;;;;;5068783;28;20036;-65
2022/07/17 10:12:34;;;;;;;2.45;0.90;;;;;;;;;;5067321;28;20075;-65
2022/07/17 10:15:01;;;;;;;1.95;0.75;;;;;;;;;;5068224;28;20090;-65
2022/07/17 10:17:27;;;;;;;2.97;0.80;;;;;;;;;;5067258;28;20045;-65
2022/07/17 10:19:55;;;;;;;2.17;0.98;;;;;;;;;;5068571;28;20393;-65
2022/07/17 10:22:22;;;;;;;3.38;0.88;;;;;;;;;;5066870;28;20044;-65
2022/07/17 10:24:52;;;;;;;3.85;0.80;;;;;;;;;;5072463;28;20041;-65
2022/07/17 10:27:28;;;;;;;2.53;0.80;;;;;;;;;;5068487;28;20044;-65
2022/07/17 10:30:06;;;;;;;3.88;1.08;;;;;;;;;;5067656;28;20045;-65
2022/07/17 10:32:33;;;;;;;2.88;0.90;;;;;;;;;;5068561;28;20044;-65
2022/07/17 10:35:00;;;;;;;4.05;1.08;;;;;;;;;;5068075;28;20045;-65
2022/07/17 10:37:29;;;;;;;3.15;1.00;;;;;;;;;;5068086;28;20044;-65
2022/07/17 10:40:02;;;;;;;4.22;1.10;;;;;;;;;;5066358;28;20111;-65
2022/07/17 10:42:40;;;;;;;2.67;0.98;;;;;;;;;;5068283;28;20040;-65
2022/07/17 10:45:10;;;;;;;4.72;1.05;;;;;;;;;;5067003;28;20457;-65
2022/07/17 10:47:55;;;;;;;3.75;0.98;;;;;;;;;;5067581;28;20037;-65
2022/07/17 10:50:23;;;;;;;3.75;0.93;;;;;;;;;;5066129;28;20075;-65
2022/07/17 10:52:59;;;;;;;3.60;1.00;;;;;;;;;;5068969;28;20040;-65
2022/07/17 10:55:25;;;;;;;3.90;0.80;;;;;;;;;;5064570;28;20055;-65
2022/07/17 10:57:51;;;;;;;2.60;0.95;;;;;;;;;;5067535;28;20032;-65
2022/07/17 11:00:17;;;;;;;4.65;1.00;;;;;;;;;;5067003;28;20048;-65
2022/07/17 11:02:43;;;;;;;3.65;1.13;;;;;;;;;;5066883;28;20394;-65
2022/07/17 11:05:10;;;;;;;3.28;1.00;;;;;;;;;;5067194;28;20512;-65
2022/07/17 11:07:36;;;;;;;3.15;1.17;;;;;;;;;;5061723;28;20395;-65
2022/07/17 11:10:03;;;;;;;2.17;1.08;;;;;;;;;;5052421;28;20044;-65
2022/07/17 11:12:35;;;;;;;2.20;0.80;;;;;;;;;;5053942;28;20033;-65
2022/07/17 11:15:04;;;;;;;2.20;0.88;;;;;;;;;;5054168;28;20040;-65
2022/07/17 11:17:30;;;;;;;5.32;0.90;;;;;;;;;;5052603;28;20076;-65
2022/07/17 11:19:59;;;;;;;5.28;1.23;;;;;;;;;;5054023;28;20036;-65
2022/07/17 11:22:26;;;;;;;5.07;1.10;;;;;;;;;;5067549;28;20052;-65
2022/07/17 11:24:52;;;;;;;3.15;0.90;;;;;;;;;;5053345;28;20037;-65
2022/07/17 11:27:20;;;;;;;5.78;1.45;;;;;;;;;;5052186;28;20095;-65
2022/07/17 11:29:47;;;;;;;1.95;0.90;;;;;;;;;;5053513;28;20056;-65
2022/07/17 11:32:13;;;;;;;2.60;1.20;;;;;;;;;;5053870;28;20041;-65
2022/07/17 11:34:39;;;;;;;3.63;1.20;;;;;;;;;;5054360;28;20045;-65
2022/07/17 11:37:06;;;;;;;3.30;0.90;;;;;;;;;;5052660;28;20502;-65
2022/07/17 11:39:42;;;;;;;2.95;1.38;;;;;;;;;;5053090;28;20037;-65
2022/07/17 11:42:10;;;;;;;1.90;1.00;;;;;;;;;;5053917;28;20040;-65
2022/07/17 11:44:36;;;;;;;3.65;1.25;;;;;;;;;;5053882;28;20052;-65
2022/07/17 11:47:02;;;;;;;3.47;1.30;;;;;;;;;;5053225;28;20037;-66
2022/07/17 11:49:34;;;;;;;5.32;1.17;;;;;;;;;;5059126;28;20133;-65
2022/07/17 11:52:08;;;;;;;2.50;1.08;;;;;;;;;;5066591;28;20033;-65
2022/07/17 11:54:43;;;;;;;4.05;1.02;;;;;;;;;;5052366;28;20116;-65
2022/07/17 11:57:09;;;;;;;3.78;1.40;;;;;;;;;;5052386;28;20041;-65
2022/07/17 11:59:35;;;;;;;3.17;0.90;;;;;;;;;;5053527;28;20041;-65
2022/07/17 12:02:08;;;;;;;3.58;1.08;;;;;;;;;;5053314;28;20120;-65
2022/07/17 12:04:34;;;;;;;2.38;0.90;;;;;;;;;;5068570;28;20071;-65
2022/07/17 12:07:02;;;;;;;4.25;1.30;;;;;;;;;;5060731;28;20040;-65
2022/07/17 12:09:29;;;;;;;3.05;1.20;;;;;;;;;;5053197;28;20048;-65
2022/07/17 12:11:55;;;;;;;2.78;1.20;;;;;;;;;;5052703;28;20072;-65
2022/07/17 12:14:21;;;;;;;2.13;1.10;;;;;;;;;;5052099;28;20048;-65
2022/07/17 12:16:47;;;;;;;2.72;1.05;;;;;;;;;;5051677;28;20048;-65
2022/07/17 12:19:15;;;;;;;5.03;1.08;;;;;;;;;;5065709;28;20051;-65
2022/07/17 12:21:47;;;;;;;2.85;1.38;;;;;;;;;;5059707;28;20051;-65
2022/07/17 12:24:19;;;;;;;3.55;1.30;;;;;;;;;;5052400;28;20044;-65
2022/07/17 12:26:45;;;;;;;2.42;1.10;;;;;;;;;;5053181;28;20045;-65
2022/07/17 12:29:11;;;;;;;2.03;1.17;;;;;;;;;;5052300;28;20476;-65
2022/07/17 12:31:37;;;;;;;1.75;1.15;;;;;;;;;;5053533;28;20047;-65
2022/07/17 12:34:03;;;;;;;4.97;1.58;;;;;;;;;;5072760;28;20040;-65
2022/07/17 12:36:29;;;;;;;3.95;1.30;;;;;;;;;;5057565;28;20051;-65
2022/07/17 12:38:55;;;;;;;4.25;1.50;;;;;;;;;;5052640;28;20044;-65
2022/07/17 12:41:21;;;;;;;3.45;1.50;;;;;;;;;;5052851;28;20378;-65
2022/07/17 12:43:47;;;;;;;3.03;1.52;;;;;;;;;;5052475;28;20068;-65
2022/07/17 12:46:14;;;;;;;4.60;1.40;;;;;;;;;;5051963;28;20045;-65
2022/07/17 12:48:42;;;;;;;2.72;1.02;;;;;;;;;;5071812;28;20079;-65
2022/07/17 12:51:09;;;;;;;7.38;1.40;;;;;;;;;;5059193;28;20094;-65
2022/07/17 12:53:35;;;;;;;1.85;1.10;;;;;;;;;;5043923;28;20481;-65
2022/07/17 12:56:02;;;;;;;4.50;1.30;;;;;;;;;;5053231;28;20504;-65
2022/07/17 12:58:29;;;;;;;4.05;1.60;;;;;;;;;;5052316;28;20036;-65
2022/07/17 13:00:55;;;;;;;3.45;1.48;;;;;;;;;;5052397;28;20041;-65
2022/07/17 13:03:21;;;;;;;4.15;1.60;;;;;;;;;;5051672;28;20037;-65
2022/07/17 13:05:47;;;;;;;4.50;1.50;;;;;;;;;;5051350;28;20079;-65
2022/07/17 13:08:13;;;;;;;3.50;1.35;;;;;;;;;;5051671;28;20048;-65
2022/07/17 13:10:39;;;;;;;3.65;1.58;;;;;;;;;;5051907;28;20116;-65
2022/07/17 13:13:05;;;;;;;5.35;1.55;;;;;;;;;;5051886;28;20388;-65
2022/07/17 13:15:32;;;;;;;3.58;1.50;;;;;;;;;;5052126;28;20033;-65
2022/07/17 13:17:59;;;;;;;5.63;1.67;;;;;;;;;;5052236;28;20052;-65
2022/07/17 13:20:25;;;;;;;4.20;1.50;;;;;;;;;;5050423;28;20037;-65
2022/07/17 13:22:52;;;;;;;4.75;1.63;;;;;;;;;;5051668;28;20067;-65
2022/07/17 13:25:18;;;;;;;2.50;1.40;;;;;;;;;;5061440;28;20039;-65
2022/07/17 13:27:44;;;;;;;1.92;1.35;;;;;;;;;;5069051;28;20044;-65
2022/07/17 13:30:10;;;;;;;2.97;1.40;;;;;;;;;;5049987;28;20037;-65
2022/07/17 13:32:37;;;;;;;5.43;1.60;;;;;;;;;;5051830;28;20033;-65
2022/07/17 13:35:03;;;;;;;6.60;1.85;;;;;;;;;;5050332;28;20533;-65
2022/07/17 13:37:29;;;;;;;5.18;1.80;;;;;;;;;;5051532;28;20063;-65
2022/07/17 13:39:55;;;;;;;2.90;1.52;;;;;;;;;;5065770;28;20068;-65
2022/07/17 13:42:21;;;;;;;2.67;1.50;;;;;;;;;;5066975;28;20041;-66
2022/07/17 13:44:47;;;;;;;5.40;1.83;;;;;;;;;;5047484;28;20090;-66
2022/07/17 13:47:13;;;;;;;3.90;2.33;;;;;;;;;;5044082;28;20080;-66
2022/07/17 13:49:39;;;;;;;3.88;2.10;;;;;;;;;;5036046;28;20069;-66
2022/07/17 13:52:05;;;;;;;4.30;2.10;;;;;;;;;;5036746;28;20147;-66
2022/07/17 13:54:31;;;;;;;4.10;2.38;;;;;;;;;;5045587;28;20501;-66
2022/07/17 13:56:59;;;;;;;4.20;2.13;;;;;;;;;;5054558;28;20041;-66
2022/07/17 13:59:25;;;;;;;5.13;2.58;;;;;;;;;;5041626;28;20460;-66
2022/07/17 14:01:51;;;;;;;4.97;2.38;;;;;;;;;;5047426;28;20058;-65
2022/07/17 14:04:18;;;;;;;2.97;2.17;;;;;;;;;;5052061;28;20394;-65
2022/07/17 14:06:44;;;;;;;3.75;2.20;;;;;;;;;;5048115;28;20437;-65
2022/07/17 14:09:11;;;;;;;5.22;2.28;;;;;;;;;;5039645;28;20042;-65
2022/07/17 14:11:37;;;;;;;5.78;2.13;;;;;;;;;;5041689;28;20083;-65
2022/07/17 14:14:04;;;;;;;4.50;2.35;;;;;;;;;;5042193;28;20041;-65
2022/07/17 14:16:30;;;;;;;6.72;2.22;;;;;;;;;;5038781;28;20049;-65
2022/07/17 14:18:59;;;;;;;4.90;2.33;;;;;;;;;;5045428;28;20041;-65
2022/07/17 14:21:26;;;;;;;6.60;2.25;;;;;;;;;;5047055;28;20116;-65
2022/07/17 14:23:52;;;;;;;3.60;2.20;;;;;;;;;;5043507;28;20045;-65
2022/07/17 14:26:18;;;;;;;3.83;2.55;;;;;;;;;;5041724;28;20043;-67
2022/07/17 14:28:44;;;;;;;4.28;2.40;;;;;;;;;;5020470;22;20054;-62
2022/07/17 14:31:10;;;;;;;5.60;2.63;;;;;;;;;;5010223;28;20034;-62
2022/07/17 14:33:36;;;;;;;5.32;2.47;;;;;;;;;;5009838;28;20395;-62
2022/07/17 14:36:02;;;;;;;6.07;2.63;;;;;;;;;;5009953;28;20121;-62
2022/07/17 14:38:28;;;;;;;5.10;2.92;;;;;;;;;;4987562;28;20081;-62
2022/07/17 14:40:54;;;;;;;5.22;2.47;;;;;;;;;;4990583;28;20062;-62
2022/07/17 14:43:20;;;;;;;5.35;2.67;;;;;;;;;;4990726;28;20106;-62